sensor_id;sensor_type;location;lat;lon;timestamp;P1;durP1;ratioP1;P2;durP2;ratioP2
43809;SDS011;29440;48.208;11.162;2024-01-10T00:01:17;24.80;;;11.88;;
43809;SDS011;29440;48.208;11.162;2024-01-10T00:03:44;27.38;;;11.70;;
43809;SDS011;29440;48.208;11.162;2024-01-10T00:06:10;30.58;;;13.07;;
43809;SDS011;29440;48.208;11.162;2024-01-10T00:08:35;27.60;;;12.13;;
43809;SDS011;29440;48.208;11.162;2024-01-10T00:11:02;34.22;;;12.77;;
43809;SDS011;29440;48.208;11.162;2024-01-10T00:13:28;29.60;;;11.10;;
43809;SDS011;29440;48.208;11.162;2024-01-10T00:15:54;25.38;;;10.82;;
43809;SDS011;29440;48.208;11.162;2024-01-10T00:18:24;28.58;;;11.13;;
43809;SDS011;29440;48.208;11.162;2024-01-10T00:20:50;26.75;;;11.43;;
43809;SDS011;29440;48.208;11.162;2024-01-10T00:23:19;23.00;;;10.38;;
43809;SDS011;29440;48.208;11.162;2024-01-10T00:25:48;29.60;;;12.52;;
43809;SDS011;29440;48.208;11.162;2024-01-10T00:28:13;31.48;;;11.35;;
43809;SDS011;29440;48.208;11.162;2024-01-10T00:30:41;34.30;;;11.75;;
43809;SDS011;29440;48.208;11.162;2024-01-10T00:33:07;31.38;;;11.80;;
43809;SDS011;29440;48.208;11.162;2024-01-10T00:35:33;23.50;;;10.68;;
43809;SDS011;29440;48.208;11.162;2024-01-10T00:37:58;33.35;;;13.32;;
43809;SDS011;29440;48.208;11.162;2024-01-10T00:40:24;25.90;;;10.07;;
43809;SDS011;29440;48.208;11.162;2024-01-10T00:42:50;25.13;;;10.27;;
43809;SDS011;29440;48.208;11.162;2024-01-10T00:45:16;26.30;;;10.77;;
43809;SDS011;29440;48.208;11.162;2024-01-10T00:47:42;27.17;;;11.05;;
43809;SDS011;29440;48.208;11.162;2024-01-10T00:50:08;26.15;;;11.93;;
43809;SDS011;29440;48.208;11.162;2024-01-10T00:52:33;28.17;;;10.18;;
43809;SDS011;29440;48.208;11.162;2024-01-10T00:54:59;26.52;;;11.65;;
43809;SDS011;29440;48.208;11.162;2024-01-10T00:57:25;24.25;;;8.75;;
43809;SDS011;29440;48.208;11.162;2024-01-10T00:59:50;25.52;;;9.95;;
43809;SDS011;29440;48.208;11.162;2024-01-10T01:02:16;27.23;;;9.98;;
43809;SDS011;29440;48.208;11.162;2024-01-10T01:04:41;27.55;;;11.57;;
43809;SDS011;29440;48.208;11.162;2024-01-10T01:07:07;19.85;;;9.32;;
43809;SDS011;29440;48.208;11.162;2024-01-10T01:09:33;25.55;;;9.90;;
43809;SDS011;29440;48.208;11.162;2024-01-10T01:11:59;22.15;;;9.38;;
43809;SDS011;29440;48.208;11.162;2024-01-10T01:14:25;23.85;;;8.95;;
43809;SDS011;29440;48.208;11.162;2024-01-10T01:16:50;29.38;;;11.82;;
43809;SDS011;29440;48.208;11.162;2024-01-10T01:19:16;23.95;;;9.13;;
43809;SDS011;29440;48.208;11.162;2024-01-10T01:21:42;28.33;;;10.45;;
43809;SDS011;29440;48.208;11.162;2024-01-10T01:24:08;31.40;;;11.20;;
43809;SDS011;29440;48.208;11.162;2024-01-10T01:26:34;30.25;;;10.90;;
43809;SDS011;29440;48.208;11.162;2024-01-10T01:28:59;27.25;;;10.90;;
43809;SDS011;29440;48.208;11.162;2024-01-10T01:31:25;37.33;;;12.70;;
43809;SDS011;29440;48.208;11.162;2024-01-10T01:33:50;21.40;;;9.25;;
43809;SDS011;29440;48.208;11.162;2024-01-10T01:36:16;25.48;;;11.02;;
43809;SDS011;29440;48.208;11.162;2024-01-10T01:38:42;30.40;;;11.88;;
43809;SDS011;29440;48.208;11.162;2024-01-10T01:41:08;28.48;;;12.18;;
43809;SDS011;29440;48.208;11.162;2024-01-10T01:43:34;27.00;;;11.73;;
43809;SDS011;29440;48.208;11.162;2024-01-10T01:46:00;25.55;;;11.13;;
43809;SDS011;29440;48.208;11.162;2024-01-10T01:48:26;30.48;;;13.68;;
43809;SDS011;29440;48.208;11.162;2024-01-10T01:50:52;29.08;;;11.65;;
43809;SDS011;29440;48.208;11.162;2024-01-10T01:53:21;21.63;;;9.68;;
43809;SDS011;29440;48.208;11.162;2024-01-10T01:55:47;22.58;;;9.70;;
43809;SDS011;29440;48.208;11.162;2024-01-10T01:58:13;29.27;;;12.57;;
43809;SDS011;29440;48.208;11.162;2024-01-10T02:00:40;32.03;;;13.40;;
43809;SDS011;29440;48.208;11.162;2024-01-10T02:03:06;28.35;;;11.57;;
43809;SDS011;29440;48.208;11.162;2024-01-10T02:05:33;30.08;;;12.10;;
43809;SDS011;29440;48.208;11.162;2024-01-10T02:07:59;30.40;;;12.45;;
43809;SDS011;29440;48.208;11.162;2024-01-10T02:10:24;24.85;;;9.20;;
43809;SDS011;29440;48.208;11.162;2024-01-10T02:12:50;28.58;;;11.43;;
43809;SDS011;29440;48.208;11.162;2024-01-10T02:15:15;32.08;;;12.70;;
43809;SDS011;29440;48.208;11.162;2024-01-10T02:17:42;25.50;;;9.45;;
43809;SDS011;29440;48.208;11.162;2024-01-10T02:20:11;30.75;;;11.40;;
43809;SDS011;29440;48.208;11.162;2024-01-10T02:22:38;27.48;;;11.10;;
43809;SDS011;29440;48.208;11.162;2024-01-10T02:25:05;24.63;;;9.85;;
43809;SDS011;29440;48.208;11.162;2024-01-10T02:27:37;30.30;;;10.63;;
43809;SDS011;29440;48.208;11.162;2024-01-10T02:30:03;30.05;;;11.50;;
43809;SDS011;29440;48.208;11.162;2024-01-10T02:32:30;25.20;;;11.73;;
43809;SDS011;29440;48.208;11.162;2024-01-10T02:34:56;32.00;;;12.27;;
43809;SDS011;29440;48.208;11.162;2024-01-10T02:37:23;25.83;;;11.77;;
43809;SDS011;29440;48.208;11.162;2024-01-10T02:39:48;34.13;;;11.60;;
43809;SDS011;29440;48.208;11.162;2024-01-10T02:42:14;28.45;;;11.93;;
43809;SDS011;29440;48.208;11.162;2024-01-10T02:44:40;31.48;;;13.40;;
43809;SDS011;29440;48.208;11.162;2024-01-10T02:47:05;31.85;;;12.18;;
43809;SDS011;29440;48.208;11.162;2024-01-10T02:49:32;40.63;;;13.32;;
43809;SDS011;29440;48.208;11.162;2024-01-10T02:51:58;28.45;;;11.45;;
43809;SDS011;29440;48.208;11.162;2024-01-10T02:54:23;35.70;;;13.88;;
43809;SDS011;29440;48.208;11.162;2024-01-10T02:56:49;35.42;;;13.20;;
43809;SDS011;29440;48.208;11.162;2024-01-10T02:59:15;31.90;;;12.93;;
43809;SDS011;29440;48.208;11.162;2024-01-10T03:01:40;37.28;;;14.45;;
43809;SDS011;29440;48.208;11.162;2024-01-10T03:04:06;23.13;;;10.25;;
43809;SDS011;29440;48.208;11.162;2024-01-10T03:06:32;32.85;;;12.65;;
43809;SDS011;29440;48.208;11.162;2024-01-10T03:08:57;36.35;;;13.23;;
43809;SDS011;29440;48.208;11.162;2024-01-10T03:11:23;35.78;;;13.25;;
43809;SDS011;29440;48.208;11.162;2024-01-10T03:13:49;34.47;;;14.50;;
43809;SDS011;29440;48.208;11.162;2024-01-10T03:16:25;30.20;;;13.20;;
43809;SDS011;29440;48.208;11.162;2024-01-10T03:18:50;28.33;;;12.05;;
43809;SDS011;29440;48.208;11.162;2024-01-10T03:21:16;29.23;;;12.02;;
43809;SDS011;29440;48.208;11.162;2024-01-10T03:23:47;23.58;;;10.13;;
43809;SDS011;29440;48.208;11.162;2024-01-10T03:26:13;28.08;;;11.52;;
43809;SDS011;29440;48.208;11.162;2024-01-10T03:28:39;30.02;;;10.27;;
43809;SDS011;29440;48.208;11.162;2024-01-10T03:31:04;30.83;;;12.77;;
43809;SDS011;29440;48.208;11.162;2024-01-10T03:33:30;34.50;;;12.98;;
43809;SDS011;29440;48.208;11.162;2024-01-10T03:35:55;28.25;;;10.75;;
43809;SDS011;29440;48.208;11.162;2024-01-10T03:38:21;35.92;;;12.00;;
43809;SDS011;29440;48.208;11.162;2024-01-10T03:40:47;27.38;;;11.32;;
43809;SDS011;29440;48.208;11.162;2024-01-10T03:43:13;31.88;;;11.25;;
43809;SDS011;29440;48.208;11.162;2024-01-10T03:45:39;29.92;;;10.35;;
43809;SDS011;29440;48.208;11.162;2024-01-10T03:48:05;28.50;;;10.68;;
43809;SDS011;29440;48.208;11.162;2024-01-10T03:50:32;21.98;;;10.05;;
43809;SDS011;29440;48.208;11.162;2024-01-10T03:52:57;31.00;;;12.07;;
43809;SDS011;29440;48.208;11.162;2024-01-10T03:55:23;25.77;;;10.15;;
43809;SDS011;29440;48.208;11.162;2024-01-10T03:57:50;34.17;;;10.75;;
43809;SDS011;29440;48.208;11.162;2024-01-10T04:00:16;27.30;;;10.20;;
43809;SDS011;29440;48.208;11.162;2024-01-10T04:02:42;33.05;;;11.80;;
43809;SDS011;29440;48.208;11.162;2024-01-10T04:05:09;30.75;;;11.75;;
43809;SDS011;29440;48.208;11.162;2024-01-10T04:07:37;31.35;;;11.75;;
43809;SDS011;29440;48.208;11.162;2024-01-10T04:10:06;19.92;;;7.68;;
43809;SDS011;29440;48.208;11.162;2024-01-10T04:12:38;15.68;;;8.25;;
43809;SDS011;29440;48.208;11.162;2024-01-10T04:15:04;30.35;;;10.82;;
43809;SDS011;29440;48.208;11.162;2024-01-10T04:17:31;27.73;;;10.60;;
43809;SDS011;29440;48.208;11.162;2024-01-10T04:19:57;28.75;;;11.25;;
43809;SDS011;29440;48.208;11.162;2024-01-10T04:22:23;23.77;;;8.73;;
43809;SDS011;29440;48.208;11.162;2024-01-10T04:24:49;32.45;;;11.45;;
43809;SDS011;29440;48.208;11.162;2024-01-10T04:27:16;29.38;;;10.52;;
43809;SDS011;29440;48.208;11.162;2024-01-10T04:29:44;36.38;;;11.48;;
43809;SDS011;29440;48.208;11.162;2024-01-10T04:32:09;32.58;;;10.27;;
43809;SDS011;29440;48.208;11.162;2024-01-10T04:34:35;27.77;;;11.15;;
43809;SDS011;29440;48.208;11.162;2024-01-10T04:37:01;27.45;;;11.73;;
43809;SDS011;29440;48.208;11.162;2024-01-10T04:39:28;33.78;;;11.25;;
43809;SDS011;29440;48.208;11.162;2024-01-10T04:41:54;29.52;;;12.50;;
43809;SDS011;29440;48.208;11.162;2024-01-10T04:44:20;20.77;;;9.88;;
43809;SDS011;29440;48.208;11.162;2024-01-10T04:46:46;30.10;;;12.52;;
43809;SDS011;29440;48.208;11.162;2024-01-10T04:49:14;40.13;;;12.45;;
43809;SDS011;29440;48.208;11.162;2024-01-10T04:51:39;33.08;;;12.68;;
43809;SDS011;29440;48.208;11.162;2024-01-10T04:54:06;29.42;;;10.10;;
43809;SDS011;29440;48.208;11.162;2024-01-10T04:56:32;40.90;;;12.32;;
43809;SDS011;29440;48.208;11.162;2024-01-10T04:58:58;28.70;;;10.18;;
43809;SDS011;29440;48.208;11.162;2024-01-10T05:01:24;40.50;;;12.20;;
43809;SDS011;29440;48.208;11.162;2024-01-10T05:03:50;40.83;;;13.35;;
43809;SDS011;29440;48.208;11.162;2024-01-10T05:06:16;29.48;;;12.35;;
43809;SDS011;29440;48.208;11.162;2024-01-10T05:08:41;31.27;;;13.43;;
43809;SDS011;29440;48.208;11.162;2024-01-10T05:11:07;28.38;;;12.13;;
43809;SDS011;29440;48.208;11.162;2024-01-10T05:13:33;23.73;;;10.20;;
43809;SDS011;29440;48.208;11.162;2024-01-10T05:15:58;28.15;;;11.50;;
43809;SDS011;29440;48.208;11.162;2024-01-10T05:18:24;31.35;;;11.90;;
43809;SDS011;29440;48.208;11.162;2024-01-10T05:20:49;31.75;;;11.48;;
43809;SDS011;29440;48.208;11.162;2024-01-10T05:23:15;34.92;;;11.65;;
43809;SDS011;29440;48.208;11.162;2024-01-10T05:25:41;31.83;;;11.25;;
43809;SDS011;29440;48.208;11.162;2024-01-10T05:28:07;32.75;;;13.18;;
43809;SDS011;29440;48.208;11.162;2024-01-10T05:30:33;37.72;;;11.88;;
43809;SDS011;29440;48.208;11.162;2024-01-10T05:32:59;40.63;;;10.77;;
43809;SDS011;29440;48.208;11.162;2024-01-10T05:35:25;32.30;;;11.15;;
43809;SDS011;29440;48.208;11.162;2024-01-10T05:37:53;34.35;;;12.20;;
43809;SDS011;29440;48.208;11.162;2024-01-10T05:40:20;32.70;;;11.48;;
43809;SDS011;29440;48.208;11.162;2024-01-10T05:42:46;39.92;;;13.20;;
43809;SDS011;29440;48.208;11.162;2024-01-10T05:45:12;29.20;;;9.27;;
43809;SDS011;29440;48.208;11.162;2024-01-10T05:47:37;32.38;;;11.57;;
43809;SDS011;29440;48.208;11.162;2024-01-10T05:50:04;29.25;;;10.55;;
43809;SDS011;29440;48.208;11.162;2024-01-10T05:52:31;32.45;;;10.68;;
43809;SDS011;29440;48.208;11.162;2024-01-10T05:54:58;35.38;;;10.57;;
43809;SDS011;29440;48.208;11.162;2024-01-10T05:57:26;29.55;;;10.88;;
43809;SDS011;29440;48.208;11.162;2024-01-10T05:59:52;33.03;;;11.88;;
43809;SDS011;29440;48.208;11.162;2024-01-10T06:02:22;36.00;;;12.90;;
43809;SDS011;29440;48.208;11.162;2024-01-10T06:04:49;33.72;;;11.13;;
43809;SDS011;29440;48.208;11.162;2024-01-10T06:07:15;39.65;;;13.07;;
43809;SDS011;29440;48.208;11.162;2024-01-10T06:09:41;34.83;;;13.15;;
43809;SDS011;29440;48.208;11.162;2024-01-10T06:12:08;44.78;;;13.35;;
43809;SDS011;29440;48.208;11.162;2024-01-10T06:14:35;36.60;;;13.02;;
43809;SDS011;29440;48.208;11.162;2024-01-10T06:17:01;34.47;;;11.40;;
43809;SDS011;29440;48.208;11.162;2024-01-10T06:19:29;33.28;;;12.73;;
43809;SDS011;29440;48.208;11.162;2024-01-10T06:21:58;40.28;;;13.20;;
43809;SDS011;29440;48.208;11.162;2024-01-10T06:24:25;46.92;;;14.05;;
43809;SDS011;29440;48.208;11.162;2024-01-10T06:26:51;37.40;;;12.52;;
43809;SDS011;29440;48.208;11.162;2024-01-10T06:29:18;29.13;;;10.95;;
43809;SDS011;29440;48.208;11.162;2024-01-10T06:31:43;35.80;;;12.75;;
43809;SDS011;29440;48.208;11.162;2024-01-10T06:34:09;36.67;;;13.52;;
43809;SDS011;29440;48.208;11.162;2024-01-10T06:36:34;34.63;;;12.18;;
43809;SDS011;29440;48.208;11.162;2024-01-10T06:39:01;32.63;;;12.13;;
43809;SDS011;29440;48.208;11.162;2024-01-10T06:41:27;32.72;;;12.32;;
43809;SDS011;29440;48.208;11.162;2024-01-10T06:43:53;31.92;;;11.82;;
43809;SDS011;29440;48.208;11.162;2024-01-10T06:46:19;21.33;;;7.45;;
43809;SDS011;29440;48.208;11.162;2024-01-10T06:48:46;33.20;;;11.65;;
43809;SDS011;29440;48.208;11.162;2024-01-10T06:51:12;30.60;;;12.38;;
43809;SDS011;29440;48.208;11.162;2024-01-10T06:53:39;39.08;;;12.50;;
43809;SDS011;29440;48.208;11.162;2024-01-10T06:56:05;39.90;;;13.80;;
43809;SDS011;29440;48.208;11.162;2024-01-10T06:58:32;45.65;;;14.38;;
43809;SDS011;29440;48.208;11.162;2024-01-10T07:00:58;35.75;;;12.05;;
43809;SDS011;29440;48.208;11.162;2024-01-10T07:03:25;29.20;;;11.57;;
43809;SDS011;29440;48.208;11.162;2024-01-10T07:05:51;38.45;;;13.27;;
43809;SDS011;29440;48.208;11.162;2024-01-10T07:08:17;40.28;;;12.52;;
43809;SDS011;29440;48.208;11.162;2024-01-10T07:10:43;41.10;;;13.00;;
43809;SDS011;29440;48.208;11.162;2024-01-10T07:13:09;37.15;;;12.23;;
43809;SDS011;29440;48.208;11.162;2024-01-10T07:15:35;25.08;;;10.48;;
43809;SDS011;29440;48.208;11.162;2024-01-10T07:18:03;39.80;;;13.43;;
43809;SDS011;29440;48.208;11.162;2024-01-10T07:20:29;45.08;;;14.05;;
43809;SDS011;29440;48.208;11.162;2024-01-10T07:22:55;36.60;;;12.65;;
43809;SDS011;29440;48.208;11.162;2024-01-10T07:25:21;41.63;;;14.50;;
43809;SDS011;29440;48.208;11.162;2024-01-10T07:27:50;45.97;;;13.50;;
43809;SDS011;29440;48.208;11.162;2024-01-10T07:30:16;37.83;;;12.77;;
43809;SDS011;29440;48.208;11.162;2024-01-10T07:32:42;42.75;;;13.60;;
43809;SDS011;29440;48.208;11.162;2024-01-10T07:35:09;45.15;;;14.90;;
43809;SDS011;29440;48.208;11.162;2024-01-10T07:37:39;50.00;;;15.50;;
43809;SDS011;29440;48.208;11.162;2024-01-10T07:40:06;41.83;;;13.38;;
43809;SDS011;29440;48.208;11.162;2024-01-10T07:42:36;40.75;;;14.18;;
43809;SDS011;29440;48.208;11.162;2024-01-10T07:45:02;35.15;;;13.00;;
43809;SDS011;29440;48.208;11.162;2024-01-10T07:47:33;39.05;;;13.60;;
43809;SDS011;29440;48.208;11.162;2024-01-10T07:50:02;36.45;;;14.20;;
43809;SDS011;29440;48.208;11.162;2024-01-10T07:52:32;41.50;;;13.43;;
43809;SDS011;29440;48.208;11.162;2024-01-10T07:54:57;31.92;;;11.80;;
43809;SDS011;29440;48.208;11.162;2024-01-10T07:57:23;33.45;;;12.43;;
43809;SDS011;29440;48.208;11.162;2024-01-10T07:59:49;37.95;;;14.90;;
43809;SDS011;29440;48.208;11.162;2024-01-10T08:02:15;38.33;;;13.52;;
43809;SDS011;29440;48.208;11.162;2024-01-10T08:04:41;36.38;;;12.60;;
43809;SDS011;29440;48.208;11.162;2024-01-10T08:07:07;36.22;;;11.90;;
43809;SDS011;29440;48.208;11.162;2024-01-10T08:09:33;32.72;;;13.13;;
43809;SDS011;29440;48.208;11.162;2024-01-10T08:11:59;40.22;;;11.50;;
43809;SDS011;29440;48.208;11.162;2024-01-10T08:14:24;32.22;;;10.77;;
43809;SDS011;29440;48.208;11.162;2024-01-10T08:16:50;32.05;;;11.70;;
43809;SDS011;29440;48.208;11.162;2024-01-10T08:19:18;28.30;;;11.25;;
43809;SDS011;29440;48.208;11.162;2024-01-10T08:21:44;28.05;;;10.65;;
43809;SDS011;29440;48.208;11.162;2024-01-10T08:24:10;17.08;;;6.13;;
43809;SDS011;29440;48.208;11.162;2024-01-10T08:26:36;35.78;;;11.88;;
43809;SDS011;29440;48.208;11.162;2024-01-10T08:29:03;35.17;;;11.23;;
43809;SDS011;29440;48.208;11.162;2024-01-10T08:31:29;28.23;;;10.18;;
43809;SDS011;29440;48.208;11.162;2024-01-10T08:33:56;32.42;;;12.43;;
43809;SDS011;29440;48.208;11.162;2024-01-10T08:36:22;35.53;;;11.30;;
43809;SDS011;29440;48.208;11.162;2024-01-10T08:38:50;32.45;;;12.02;;
43809;SDS011;29440;48.208;11.162;2024-01-10T08:41:17;26.30;;;11.73;;
43809;SDS011;29440;48.208;11.162;2024-01-10T08:43:44;27.52;;;10.38;;
43809;SDS011;29440;48.208;11.162;2024-01-10T08:46:11;33.95;;;11.27;;
43809;SDS011;29440;48.208;11.162;2024-01-10T08:48:38;31.23;;;11.93;;
43809;SDS011;29440;48.208;11.162;2024-01-10T08:51:03;29.17;;;11.85;;
43809;SDS011;29440;48.208;11.162;2024-01-10T08:53:29;34.85;;;13.70;;
43809;SDS011;29440;48.208;11.162;2024-01-10T08:55:55;37.35;;;13.05;;
43809;SDS011;29440;48.208;11.162;2024-01-10T08:58:21;38.22;;;13.43;;
43809;SDS011;29440;48.208;11.162;2024-01-10T09:00:47;26.15;;;8.90;;
43809;SDS011;29440;48.208;11.162;2024-01-10T09:03:13;30.85;;;12.85;;
43809;SDS011;29440;48.208;11.162;2024-01-10T09:05:39;29.67;;;11.95;;
43809;SDS011;29440;48.208;11.162;2024-01-10T09:08:05;33.45;;;11.70;;
43809;SDS011;29440;48.208;11.162;2024-01-10T09:10:30;29.02;;;11.35;;
43809;SDS011;29440;48.208;11.162;2024-01-10T09:12:58;38.72;;;15.00;;
43809;SDS011;29440;48.208;11.162;2024-01-10T09:15:24;42.08;;;15.13;;
43809;SDS011;29440;48.208;11.162;2024-01-10T09:17:50;43.67;;;14.75;;
43809;SDS011;29440;48.208;11.162;2024-01-10T09:20:17;34.30;;;12.20;;
43809;SDS011;29440;48.208;11.162;2024-01-10T09:22:43;43.53;;;15.32;;
43809;SDS011;29440;48.208;11.162;2024-01-10T09:25:10;33.42;;;13.07;;
43809;SDS011;29440;48.208;11.162;2024-01-10T09:27:38;39.85;;;15.77;;
43809;SDS011;29440;48.208;11.162;2024-01-10T09:30:16;39.65;;;13.18;;
43809;SDS011;29440;48.208;11.162;2024-01-10T09:32:43;28.48;;;10.63;;
43809;SDS011;29440;48.208;11.162;2024-01-10T09:35:09;45.97;;;16.10;;
43809;SDS011;29440;48.208;11.162;2024-01-10T09:37:35;52.50;;;17.40;;
43809;SDS011;29440;48.208;11.162;2024-01-10T09:40:01;41.83;;;16.65;;
43809;SDS011;29440;48.208;11.162;2024-01-10T09:42:26;49.75;;;17.98;;
43809;SDS011;29440;48.208;11.162;2024-01-10T09:44:56;51.95;;;16.17;;
43809;SDS011;29440;48.208;11.162;2024-01-10T09:47:22;43.38;;;14.35;;
43809;SDS011;29440;48.208;11.162;2024-01-10T09:49:48;44.30;;;15.02;;
43809;SDS011;29440;48.208;11.162;2024-01-10T09:52:24;38.60;;;13.77;;
43809;SDS011;29440;48.208;11.162;2024-01-10T09:54:54;36.17;;;12.85;;
43809;SDS011;29440;48.208;11.162;2024-01-10T09:57:22;34.88;;;13.18;;
43809;SDS011;29440;48.208;11.162;2024-01-10T09:59:49;43.55;;;14.40;;
43809;SDS011;29440;48.208;11.162;2024-01-10T10:02:16;46.90;;;14.90;;
43809;SDS011;29440;48.208;11.162;2024-01-10T10:05:03;38.50;;;14.25;;
43809;SDS011;29440;48.208;11.162;2024-01-10T10:07:49;43.45;;;15.20;;
43809;SDS011;29440;48.208;11.162;2024-01-10T10:10:17;39.28;;;14.88;;
43809;SDS011;29440;48.208;11.162;2024-01-10T10:12:43;38.17;;;14.90;;
43809;SDS011;29440;48.208;11.162;2024-01-10T10:15:14;38.85;;;13.95;;
43809;SDS011;29440;48.208;11.162;2024-01-10T10:17:42;37.25;;;14.27;;
43809;SDS011;29440;48.208;11.162;2024-01-10T10:20:23;44.33;;;14.75;;
43809;SDS011;29440;48.208;11.162;2024-01-10T10:22:59;41.70;;;14.63;;
43809;SDS011;29440;48.208;11.162;2024-01-10T10:25:29;43.53;;;14.65;;
43809;SDS011;29440;48.208;11.162;2024-01-10T10:28:01;40.67;;;13.93;;
43809;SDS011;29440;48.208;11.162;2024-01-10T10:30:28;35.95;;;13.48;;
43809;SDS011;29440;48.208;11.162;2024-01-10T10:32:56;39.03;;;14.45;;
43809;SDS011;29440;48.208;11.162;2024-01-10T10:35:21;45.10;;;14.43;;
43809;SDS011;29440;48.208;11.162;2024-01-10T10:37:48;39.30;;;13.45;;
43809;SDS011;29440;48.208;11.162;2024-01-10T10:40:15;41.13;;;15.13;;
43809;SDS011;29440;48.208;11.162;2024-01-10T10:42:46;44.75;;;14.10;;
43809;SDS011;29440;48.208;11.162;2024-01-10T10:45:17;41.28;;;14.63;;
43809;SDS011;29440;48.208;11.162;2024-01-10T10:47:44;39.13;;;14.23;;
43809;SDS011;29440;48.208;11.162;2024-01-10T10:50:21;39.33;;;13.68;;
43809;SDS011;29440;48.208;11.162;2024-01-10T10:52:48;42.15;;;14.90;;
43809;SDS011;29440;48.208;11.162;2024-01-10T10:55:15;43.10;;;14.15;;
43809;SDS011;29440;48.208;11.162;2024-01-10T10:57:46;44.17;;;14.70;;
43809;SDS011;29440;48.208;11.162;2024-01-10T11:00:14;42.15;;;13.80;;
43809;SDS011;29440;48.208;11.162;2024-01-10T11:02:41;55.05;;;16.85;;
43809;SDS011;29440;48.208;11.162;2024-01-10T11:05:09;33.83;;;12.90;;
43809;SDS011;29440;48.208;11.162;2024-01-10T11:07:35;38.20;;;13.73;;
43809;SDS011;29440;48.208;11.162;2024-01-10T11:10:02;48.55;;;13.88;;
43809;SDS011;29440;48.208;11.162;2024-01-10T11:15:44;41.42;;;13.63;;
43809;SDS011;29440;48.208;11.162;2024-01-10T11:18:28;43.10;;;14.32;;
43809;SDS011;29440;48.208;11.162;2024-01-10T11:23:51;46.78;;;15.73;;
43809;SDS011;29440;48.208;11.162;2024-01-10T11:26:19;41.47;;;14.38;;
43809;SDS011;29440;48.208;11.162;2024-01-10T11:28:45;42.28;;;15.48;;
43809;SDS011;29440;48.208;11.162;2024-01-10T11:31:12;43.20;;;14.57;;
43809;SDS011;29440;48.208;11.162;2024-01-10T11:33:40;38.88;;;13.88;;
43809;SDS011;29440;48.208;11.162;2024-01-10T11:41:23;44.75;;;13.45;;
43809;SDS011;29440;48.208;11.162;2024-01-10T11:46:52;45.58;;;16.20;;
43809;SDS011;29440;48.208;11.162;2024-01-10T11:49:18;48.40;;;15.77;;
43809;SDS011;29440;48.208;11.162;2024-01-10T11:51:45;52.92;;;16.63;;
43809;SDS011;29440;48.208;11.162;2024-01-10T11:59:44;41.80;;;12.82;;
43809;SDS011;29440;48.208;11.162;2024-01-10T12:02:10;40.20;;;12.90;;
43809;SDS011;29440;48.208;11.162;2024-01-10T12:04:37;44.78;;;16.17;;
43809;SDS011;29440;48.208;11.162;2024-01-10T12:07:02;36.17;;;13.10;;
43809;SDS011;29440;48.208;11.162;2024-01-10T12:09:29;41.30;;;14.25;;
43809;SDS011;29440;48.208;11.162;2024-01-10T12:11:55;38.90;;;13.95;;
43809;SDS011;29440;48.208;11.162;2024-01-10T12:14:25;33.05;;;12.15;;
43809;SDS011;29440;48.208;11.162;2024-01-10T12:16:51;30.63;;;11.25;;
43809;SDS011;29440;48.208;11.162;2024-01-10T12:19:20;40.42;;;14.40;;
43809;SDS011;29440;48.208;11.162;2024-01-10T12:21:45;41.45;;;14.88;;
43809;SDS011;29440;48.208;11.162;2024-01-10T12:24:12;35.92;;;12.25;;
43809;SDS011;29440;48.208;11.162;2024-01-10T12:26:43;45.45;;;12.45;;
43809;SDS011;29440;48.208;11.162;2024-01-10T12:29:12;39.10;;;13.75;;
43809;SDS011;29440;48.208;11.162;2024-01-10T12:31:41;43.88;;;13.57;;
43809;SDS011;29440;48.208;11.162;2024-01-10T12:34:09;45.55;;;13.43;;
43809;SDS011;29440;48.208;11.162;2024-01-10T12:36:35;41.60;;;13.77;;
43809;SDS011;29440;48.208;11.162;2024-01-10T12:39:01;35.85;;;10.98;;
43809;SDS011;29440;48.208;11.162;2024-01-10T12:41:27;22.80;;;9.73;;
43809;SDS011;29440;48.208;11.162;2024-01-10T12:43:52;46.80;;;15.32;;
43809;SDS011;29440;48.208;11.162;2024-01-10T12:46:28;51.33;;;17.08;;
43809;SDS011;29440;48.208;11.162;2024-01-10T12:49:02;45.80;;;15.70;;
43809;SDS011;29440;48.208;11.162;2024-01-10T12:51:30;39.92;;;14.48;;
43809;SDS011;29440;48.208;11.162;2024-01-10T12:53:57;37.28;;;13.70;;
43809;SDS011;29440;48.208;11.162;2024-01-10T12:56:26;34.65;;;12.25;;
43809;SDS011;29440;48.208;11.162;2024-01-10T12:58:53;42.83;;;13.68;;
43809;SDS011;29440;48.208;11.162;2024-01-10T13:01:22;40.63;;;13.55;;
43809;SDS011;29440;48.208;11.162;2024-01-10T13:03:48;39.58;;;12.20;;
43809;SDS011;29440;48.208;11.162;2024-01-10T13:06:14;36.78;;;13.95;;
43809;SDS011;29440;48.208;11.162;2024-01-10T13:08:41;46.10;;;14.48;;
43809;SDS011;29440;48.208;11.162;2024-01-10T13:11:07;40.45;;;13.07;;
43809;SDS011;29440;48.208;11.162;2024-01-10T13:13:37;37.85;;;13.77;;
43809;SDS011;29440;48.208;11.162;2024-01-10T13:16:03;38.97;;;12.50;;
43809;SDS011;29440;48.208;11.162;2024-01-10T13:18:30;38.55;;;13.60;;
43809;SDS011;29440;48.208;11.162;2024-01-10T13:20:56;38.47;;;13.73;;
43809;SDS011;29440;48.208;11.162;2024-01-10T13:23:22;41.97;;;14.43;;
43809;SDS011;29440;48.208;11.162;2024-01-10T13:25:49;41.58;;;13.18;;
43809;SDS011;29440;48.208;11.162;2024-01-10T13:28:15;45.88;;;14.48;;
43809;SDS011;29440;48.208;11.162;2024-01-10T13:30:41;39.75;;;13.82;;
43809;SDS011;29440;48.208;11.162;2024-01-10T13:33:08;37.80;;;12.40;;
43809;SDS011;29440;48.208;11.162;2024-01-10T13:35:37;36.45;;;12.90;;
43809;SDS011;29440;48.208;11.162;2024-01-10T13:38:03;38.50;;;13.90;;
43809;SDS011;29440;48.208;11.162;2024-01-10T13:40:30;40.47;;;13.25;;
43809;SDS011;29440;48.208;11.162;2024-01-10T13:42:56;40.58;;;13.73;;
43809;SDS011;29440;48.208;11.162;2024-01-10T13:45:22;40.00;;;12.23;;
43809;SDS011;29440;48.208;11.162;2024-01-10T13:47:48;38.50;;;13.00;;
43809;SDS011;29440;48.208;11.162;2024-01-10T13:50:14;41.65;;;14.38;;
43809;SDS011;29440;48.208;11.162;2024-01-10T13:52:40;43.65;;;13.57;;
43809;SDS011;29440;48.208;11.162;2024-01-10T13:55:05;42.55;;;14.27;;
43809;SDS011;29440;48.208;11.162;2024-01-10T13:57:33;41.08;;;14.55;;
43809;SDS011;29440;48.208;11.162;2024-01-10T13:59:58;38.40;;;13.18;;
43809;SDS011;29440;48.208;11.162;2024-01-10T14:02:25;40.67;;;12.98;;
43809;SDS011;29440;48.208;11.162;2024-01-10T14:04:50;37.30;;;12.32;;
43809;SDS011;29440;48.208;11.162;2024-01-10T14:07:17;40.15;;;13.52;;
43809;SDS011;29440;48.208;11.162;2024-01-10T14:09:42;39.00;;;12.55;;
43809;SDS011;29440;48.208;11.162;2024-01-10T14:12:08;38.70;;;13.50;;
43809;SDS011;29440;48.208;11.162;2024-01-10T14:14:34;44.13;;;13.43;;
43809;SDS011;29440;48.208;11.162;2024-01-10T14:16:59;39.53;;;13.55;;
43809;SDS011;29440;48.208;11.162;2024-01-10T14:19:25;42.45;;;12.65;;
43809;SDS011;29440;48.208;11.162;2024-01-10T14:21:51;36.60;;;12.85;;
43809;SDS011;29440;48.208;11.162;2024-01-10T14:24:17;48.15;;;16.38;;
43809;SDS011;29440;48.208;11.162;2024-01-10T14:26:42;37.55;;;12.65;;